sensor_id;sensor_type;location;lat;lon;timestamp;pressure;altitude;pressure_sealevel;temperature;humidity
9721;BME280;4899;42.644;23.366;2022-12-08T00:01:21;94029.25;;;1.76;100.00
9721;BME280;4899;42.644;23.366;2022-12-08T00:03:47;94018.09;;;1.77;100.00
9721;BME280;4899;42.644;23.366;2022-12-08T00:09:14;94054.84;;;1.90;100.00
9721;BME280;4899;42.644;23.366;2022-12-08T00:11:51;94060.94;;;1.83;100.00
9721;BME280;4899;42.644;23.366;2022-12-08T00:14:17;94053.84;;;1.75;100.00
9721;BME280;4899;42.644;23.366;2022-12-08T00:16:42;94053.09;;;1.75;100.00
9721;BME280;4899;42.644;23.366;2022-12-08T00:19:08;94064.47;;;1.88;100.00
9721;BME280;4899;42.644;23.366;2022-12-08T00:21:33;94069.28;;;1.89;100.00
9721;BME280;4899;42.644;23.366;2022-12-08T00:23:59;94079.44;;;1.89;100.00
9721;BME280;4899;42.644;23.366;2022-12-08T00:26:24;94057.13;;;1.81;100.00
9721;BME280;4899;42.644;23.366;2022-12-08T00:28:49;94077.41;;;1.91;100.00
9721;BME280;4899;42.644;23.366;2022-12-08T00:31:15;94072.31;;;1.91;100.00
9721;BME280;4899;42.644;23.366;2022-12-08T00:33:40;94087.78;;;2.05;100.00
9721;BME280;4899;42.644;23.366;2022-12-08T00:36:07;94071.28;;;1.97;100.00
9721;BME280;4899;42.644;23.366;2022-12-08T00:38:35;94073.84;;;2.02;100.00
9721;BME280;4899;42.644;23.366;2022-12-08T00:41:01;94084.22;;;2.11;100.00
9721;BME280;4899;42.644;23.366;2022-12-08T00:43:26;94056.06;;;1.97;100.00
9721;BME280;4899;42.644;23.366;2022-12-08T00:45:52;94078.88;;;2.12;100.00
9721;BME280;4899;42.644;23.366;2022-12-08T00:48:17;94082.16;;;2.18;100.00
9721;BME280;4899;42.644;23.366;2022-12-08T00:50:42;94078.13;;;2.12;100.00
9721;BME280;4899;42.644;23.366;2022-12-08T00:53:08;94066.75;;;1.94;100.00
9721;BME280;4899;42.644;23.366;2022-12-08T00:55:33;94082.97;;;1.88;100.00
9721;BME280;4899;42.644;23.366;2022-12-08T00:57:59;94080.69;;;1.87;100.00
9721;BME280;4899;42.644;23.366;2022-12-08T01:00:24;94099.69;;;2.09;100.00
9721;BME280;4899;42.644;23.366;2022-12-08T01:02:50;94094.41;;;2.01;100.00
9721;BME280;4899;42.644;23.366;2022-12-08T01:05:15;94076.63;;;2.11;100.00
9721;BME280;4899;42.644;23.366;2022-12-08T01:07:40;94064.69;;;2.06;100.00
9721;BME280;4899;42.644;23.366;2022-12-08T01:10:06;94072.25;;;2.22;100.00
9721;BME280;4899;42.644;23.366;2022-12-08T01:12:32;94076.81;;;2.30;100.00
9721;BME280;4899;42.644;23.366;2022-12-08T01:14:58;94079.88;;;2.32;100.00
9721;BME280;4899;42.644;23.366;2022-12-08T01:17:23;94086.97;;;2.35;100.00
9721;BME280;4899;42.644;23.366;2022-12-08T01:19:48;94062.13;;;2.22;100.00
9721;BME280;4899;42.644;23.366;2022-12-08T01:22:14;94099.13;;;2.38;100.00
9721;BME280;4899;42.644;23.366;2022-12-08T01:24:39;94095.59;;;2.34;100.00
9721;BME280;4899;42.644;23.366;2022-12-08T01:27:05;94065.16;;;2.19;100.00
9721;BME280;4899;42.644;23.366;2022-12-08T01:29:30;94081.16;;;2.24;100.00
9721;BME280;4899;42.644;23.366;2022-12-08T01:31:55;94053.78;;;2.11;100.00
9721;BME280;4899;42.644;23.366;2022-12-08T01:34:21;94090.78;;;2.32;100.00
9721;BME280;4899;42.644;23.366;2022-12-08T01:36:46;94067.69;;;2.34;100.00
9721;BME280;4899;42.644;23.366;2022-12-08T01:39:17;94055.00;;;2.29;100.00
9721;BME280;4899;42.644;23.366;2022-12-08T01:41:44;94057.28;;;2.30;100.00
9721;BME280;4899;42.644;23.366;2022-12-08T01:46:40;94077.03;;;2.43;100.00
9721;BME280;4899;42.644;23.366;2022-12-08T01:49:19;94072.47;;;2.40;100.00
9721;BME280;4899;42.644;23.366;2022-12-08T01:52:15;94066.13;;;2.38;100.00
9721;BME280;4899;42.644;23.366;2022-12-08T01:54:49;94049.69;;;2.30;100.00
9721;BME280;4899;42.644;23.366;2022-12-08T01:57:19;94052.72;;;2.27;100.00
9721;BME280;4899;42.644;23.366;2022-12-08T01:59:54;94046.66;;;2.23;100.00
9721;BME280;4899;42.644;23.366;2022-12-08T02:02:21;94042.31;;;2.29;100.00
9721;BME280;4899;42.644;23.366;2022-12-08T02:04:48;94013.94;;;2.16;100.00
9721;BME280;4899;42.644;23.366;2022-12-08T02:07:14;94020.75;;;2.21;100.00
9721;BME280;4899;42.644;23.366;2022-12-08T02:09:40;94031.66;;;2.22;100.00
9721;BME280;4899;42.644;23.366;2022-12-08T02:12:06;94035.22;;;2.21;100.00
9721;BME280;4899;42.644;23.366;2022-12-08T02:14:32;94036.81;;;2.01;100.00
9721;BME280;4899;42.644;23.366;2022-12-08T02:25:18;94031.78;;;1.66;100.00
9721;BME280;4899;42.644;23.366;2022-12-08T02:36:41;94045.00;;;1.52;100.00
9721;BME280;4899;42.644;23.366;2022-12-08T02:42:20;94049.28;;;1.47;100.00
9721;BME280;4899;42.644;23.366;2022-12-08T02:44:54;94054.09;;;1.48;100.00
9721;BME280;4899;42.644;23.366;2022-12-08T02:47:22;94003.19;;;1.30;100.00
9721;BME280;4899;42.644;23.366;2022-12-08T02:49:48;94014.31;;;1.44;100.00
9721;BME280;4899;42.644;23.366;2022-12-08T02:54:41;94035.88;;;1.51;100.00
9721;BME280;4899;42.644;23.366;2022-12-08T03:00:24;94028.25;;;1.57;100.00
9721;BME280;4899;42.644;23.366;2022-12-08T03:08:21;94048.28;;;1.38;100.00
9721;BME280;4899;42.644;23.366;2022-12-08T03:11:05;94045.00;;;1.32;100.00
9721;BME280;4899;42.644;23.366;2022-12-08T03:13:44;94038.88;;;1.23;100.00
9721;BME280;4899;42.644;23.366;2022-12-08T03:16:13;94035.34;;;1.19;100.00
9721;BME280;4899;42.644;23.366;2022-12-08T03:18:43;94020.41;;;1.07;100.00
9721;BME280;4899;42.644;23.366;2022-12-08T03:21:09;94011.78;;;1.08;100.00
9721;BME280;4899;42.644;23.366;2022-12-08T03:23:38;94034.56;;;1.23;100.00
9721;BME280;4899;42.644;23.366;2022-12-08T03:26:17;94022.16;;;1.22;100.00
9721;BME280;4899;42.644;23.366;2022-12-08T03:28:43;94001.41;;;1.15;100.00
9721;BME280;4899;42.644;23.366;2022-12-08T03:31:11;94023.47;;;1.25;100.00
9721;BME280;4899;42.644;23.366;2022-12-08T03:33:40;94030.53;;;1.22;100.00
9721;BME280;4899;42.644;23.366;2022-12-08T03:36:08;94026.22;;;1.13;100.00
9721;BME280;4899;42.644;23.366;2022-12-08T03:38:42;94029.78;;;1.22;100.00
9721;BME280;4899;42.644;23.366;2022-12-08T03:41:08;94042.97;;;1.24;100.00
9721;BME280;4899;42.644;23.366;2022-12-08T03:43:43;94034.59;;;1.18;100.00
9721;BME280;4899;42.644;23.366;2022-12-08T03:46:08;94033.06;;;1.17;100.00
9721;BME280;4899;42.644;23.366;2022-12-08T03:48:34;94045.00;;;1.27;100.00
9721;BME280;4899;42.644;23.366;2022-12-08T03:50:59;94033.59;;;1.25;100.00
9721;BME280;4899;42.644;23.366;2022-12-08T03:53:24;94038.16;;;1.28;100.00
9721;BME280;4899;42.644;23.366;2022-12-08T03:55:52;94040.44;;;1.29;100.00
9721;BME280;4899;42.644;23.366;2022-12-08T03:58:17;94018.63;;;1.18;100.00
9721;BME280;4899;42.644;23.366;2022-12-08T04:00:43;94043.47;;;1.41;100.00
9721;BME280;4899;42.644;23.366;2022-12-08T04:03:08;94019.16;;;1.35;100.00
9721;BME280;4899;42.644;23.366;2022-12-08T04:05:34;94049.28;;;1.47;100.00
9721;BME280;4899;42.644;23.366;2022-12-08T04:07:59;94041.97;;;1.50;100.00
9721;BME280;4899;42.644;23.366;2022-12-08T04:10:25;94058.41;;;1.58;100.00
9721;BME280;4899;42.644;23.366;2022-12-08T04:12:50;94060.19;;;1.58;100.00
9721;BME280;4899;42.644;23.366;2022-12-08T04:15:16;94040.69;;;1.53;100.00
9721;BME280;4899;42.644;23.366;2022-12-08T04:17:41;94047.28;;;1.49;100.00
9721;BME280;4899;42.644;23.366;2022-12-08T04:20:07;94053.59;;;1.46;100.00
9721;BME280;4899;42.644;23.366;2022-12-08T04:22:32;94060.94;;;1.43;100.00
9721;BME280;4899;42.644;23.366;2022-12-08T04:24:58;94047.25;;;1.39;100.00
9721;BME280;4899;42.644;23.366;2022-12-08T04:27:23;94038.91;;;1.43;100.00
9721;BME280;4899;42.644;23.366;2022-12-08T04:29:49;94041.19;;;1.40;100.00
9721;BME280;4899;42.644;23.366;2022-12-08T04:32:14;94047.78;;;1.51;100.00
9721;BME280;4899;42.644;23.366;2022-12-08T04:34:39;94055.38;;;1.51;100.00
9721;BME280;4899;42.644;23.366;2022-12-08T04:37:05;94050.31;;;1.51;100.00
9721;BME280;4899;42.644;23.366;2022-12-08T04:39:30;94040.41;;;1.44;100.00
9721;BME280;4899;42.644;23.366;2022-12-08T04:41:56;94050.56;;;1.54;100.00
9721;BME280;4899;42.644;23.366;2022-12-08T04:44:21;94052.06;;;1.61;100.00
9721;BME280;4899;42.644;23.366;2022-12-08T04:46:46;94053.56;;;1.72;100.00
9721;BME280;4899;42.644;23.366;2022-12-08T04:49:12;94049.03;;;1.69;100.00
9721;BME280;4899;42.644;23.366;2022-12-08T04:51:37;94024.69;;;1.63;100.00
9721;BME280;4899;42.644;23.366;2022-12-08T04:54:03;94045.97;;;1.82;100.00
9721;BME280;4899;42.644;23.366;2022-12-08T04:56:28;94037.34;;;1.88;100.00
9721;BME280;4899;42.644;23.366;2022-12-08T04:58:53;94042.91;;;1.90;100.00
9721;BME280;4899;42.644;23.366;2022-12-08T05:01:19;94056.59;;;1.94;100.00
9721;BME280;4899;42.644;23.366;2022-12-08T05:03:44;94064.72;;;1.71;100.00
9721;BME280;4899;42.644;23.366;2022-12-08T05:06:12;94057.13;;;1.66;100.00
9721;BME280;4899;42.644;23.366;2022-12-08T05:08:38;94068.28;;;1.65;100.00
9721;BME280;4899;42.644;23.366;2022-12-08T05:11:05;94077.16;;;1.67;100.00
9721;BME280;4899;42.644;23.366;2022-12-08T05:13:31;94067.56;;;1.54;100.00
9721;BME280;4899;42.644;23.366;2022-12-08T05:16:04;94083.25;;;1.61;100.00
9721;BME280;4899;42.644;23.366;2022-12-08T05:18:30;94046.50;;;1.53;100.00
9721;BME280;4899;42.644;23.366;2022-12-08T05:20:55;94056.13;;;1.57;100.00
9721;BME280;4899;42.644;23.366;2022-12-08T05:23:21;94054.59;;;1.66;100.00
9721;BME280;4899;42.644;23.366;2022-12-08T05:25:46;94061.94;;;1.67;100.00
9721;BME280;4899;42.644;23.366;2022-12-08T05:28:11;94086.28;;;1.83;100.00
9721;BME280;4899;42.644;23.366;2022-12-08T05:30:37;94068.28;;;1.85;100.00
9721;BME280;4899;42.644;23.366;2022-12-08T05:33:02;94068.78;;;1.87;100.00
9721;BME280;4899;42.644;23.366;2022-12-08T05:35:27;94089.84;;;1.88;100.00
9721;BME280;4899;42.644;23.366;2022-12-08T05:37:53;94084.50;;;1.89;100.00
9721;BME280;4899;42.644;23.366;2022-12-08T05:40:18;94082.72;;;1.95;100.00
9721;BME280;4899;42.644;23.366;2022-12-08T05:42:44;94093.88;;;1.94;100.00
9721;BME280;4899;42.644;23.366;2022-12-08T05:45:09;94093.34;;;1.97;100.00
9721;BME280;4899;42.644;23.366;2022-12-08T05:47:35;94073.34;;;1.85;100.00
9721;BME280;4899;42.644;23.366;2022-12-08T05:50:00;94086.50;;;1.97;100.00
9721;BME280;4899;42.644;23.366;2022-12-08T05:52:26;94082.75;;;1.84;100.00
9721;BME280;4899;42.644;23.366;2022-12-08T05:54:51;94079.69;;;1.82;100.00
9721;BME280;4899;42.644;23.366;2022-12-08T05:57:17;94075.38;;;1.83;100.00
9721;BME280;4899;42.644;23.366;2022-12-08T05:59:43;94077.94;;;1.78;100.00
9721;BME280;4899;42.644;23.366;2022-12-08T06:02:08;94100.72;;;1.93;100.00
9721;BME280;4899;42.644;23.366;2022-12-08T06:04:34;94100.72;;;1.93;100.00
9721;BME280;4899;42.644;23.366;2022-12-08T06:06:59;94089.56;;;1.89;100.00
9721;BME280;4899;42.644;23.366;2022-12-08T06:09:25;94099.22;;;1.87;100.00
9721;BME280;4899;42.644;23.366;2022-12-08T06:11:50;94098.44;;;1.87;100.00
9721;BME280;4899;42.644;23.366;2022-12-08T06:14:16;94088.31;;;1.71;100.00
9721;BME280;4899;42.644;23.366;2022-12-08T06:16:41;94097.19;;;1.69;100.00
9721;BME280;4899;42.644;23.366;2022-12-08T06:19:07;94095.69;;;1.58;100.00
9721;BME280;4899;42.644;23.366;2022-12-08T06:21:32;94124.06;;;1.60;100.00
9721;BME280;4899;42.644;23.366;2022-12-08T06:23:58;94067.28;;;1.35;100.00
9721;BME280;4899;42.644;23.366;2022-12-08T06:26:24;94120.00;;;1.64;100.00
9721;BME280;4899;42.644;23.366;2022-12-08T06:28:49;94129.38;;;1.68;100.00
9721;BME280;4899;42.644;23.366;2022-12-08T06:31:19;94097.72;;;1.56;100.00
9721;BME280;4899;42.644;23.366;2022-12-08T06:33:45;94115.19;;;1.72;100.00
9721;BME280;4899;42.644;23.366;2022-12-08T06:36:12;94131.16;;;1.88;100.00
9721;BME280;4899;42.644;23.366;2022-12-08T06:38:38;94124.56;;;1.87;100.00
9721;BME280;4899;42.644;23.366;2022-12-08T06:41:04;94113.41;;;1.93;100.00
9721;BME280;4899;42.644;23.366;2022-12-08T06:43:30;94122.28;;;2.01;100.00
9721;BME280;4899;42.644;23.366;2022-12-08T06:45:57;94121.00;;;2.13;100.00
9721;BME280;4899;42.644;23.366;2022-12-08T06:48:23;94115.91;;;2.19;100.00
9721;BME280;4899;42.644;23.366;2022-12-08T06:50:48;94116.69;;;2.24;100.00
9721;BME280;4899;42.644;23.366;2022-12-08T06:53:14;94081.41;;;2.17;100.00
9721;BME280;4899;42.644;23.366;2022-12-08T06:55:50;94104.69;;;2.40;100.00
9721;BME280;4899;42.644;23.366;2022-12-08T06:58:16;94115.84;;;2.44;100.00
9721;BME280;4899;42.644;23.366;2022-12-08T07:00:42;94112.59;;;2.28;100.00
9721;BME280;4899;42.644;23.366;2022-12-08T07:03:08;94111.31;;;2.36;100.00
9721;BME280;4899;42.644;23.366;2022-12-08T07:05:35;94101.91;;;2.36;100.00
9721;BME280;4899;42.644;23.366;2022-12-08T07:08:01;94109.06;;;2.29;100.00
9721;BME280;4899;42.644;23.366;2022-12-08T07:10:26;94112.38;;;2.25;100.00
9721;BME280;4899;42.644;23.366;2022-12-08T07:12:52;94129.06;;;2.41;100.00
9721;BME280;4899;42.644;23.366;2022-12-08T07:15:18;94137.94;;;2.38;100.00
9721;BME280;4899;42.644;23.366;2022-12-08T07:17:44;94121.97;;;2.38;100.00
9721;BME280;4899;42.644;23.366;2022-12-08T07:20:09;94128.34;;;2.30;100.00
9721;BME280;4899;42.644;23.366;2022-12-08T07:22:35;94139.22;;;2.41;100.00
9721;BME280;4899;42.644;23.366;2022-12-08T07:25:00;94134.66;;;2.38;100.00
9721;BME280;4899;42.644;23.366;2022-12-08T07:27:26;94136.16;;;2.44;100.00
9721;BME280;4899;42.644;23.366;2022-12-08T07:29:51;94150.88;;;2.47;100.00
9721;BME280;4899;42.644;23.366;2022-12-08T07:32:16;94164.56;;;2.56;100.00
9721;BME280;4899;42.644;23.366;2022-12-08T07:34:42;94142.00;;;2.55;100.00
9721;BME280;4899;42.644;23.366;2022-12-08T07:37:07;94126.25;;;2.47;100.00
9721;BME280;4899;42.644;23.366;2022-12-08T07:39:33;94176.19;;;2.77;100.00
9721;BME280;4899;42.644;23.366;2022-12-08T07:41:58;94143.00;;;2.59;100.00
9721;BME280;4899;42.644;23.366;2022-12-08T07:44:24;94155.84;;;2.88;100.00
9721;BME280;4899;42.644;23.366;2022-12-08T07:46:49;94158.91;;;2.85;100.00
9721;BME280;4899;42.644;23.366;2022-12-08T07:49:14;94151.28;;;2.85;100.00
9721;BME280;4899;42.644;23.366;2022-12-08T07:51:40;94144.88;;;2.97;100.00
9721;BME280;4899;42.644;23.366;2022-12-08T07:54:08;94156.06;;;3.01;100.00
9721;BME280;4899;42.644;23.366;2022-12-08T07:56:34;94164.09;;;3.24;100.00
9721;BME280;4899;42.644;23.366;2022-12-08T07:59:00;94144.53;;;3.24;100.00
9721;BME280;4899;42.644;23.366;2022-12-08T08:01:28;94162.75;;;3.36;100.00
9721;BME280;4899;42.644;23.366;2022-12-08T08:03:56;94169.75;;;3.55;100.00
9721;BME280;4899;42.644;23.366;2022-12-08T08:06:23;94164.38;;;3.61;100.00
9721;BME280;4899;42.644;23.366;2022-12-08T08:08:48;94152.88;;;3.69;100.00
9721;BME280;4899;42.644;23.366;2022-12-08T08:11:14;94150.00;;;3.81;100.00
9721;BME280;4899;42.644;23.366;2022-12-08T08:13:39;94150.41;;;3.93;100.00
9721;BME280;4899;42.644;23.366;2022-12-08T08:16:07;94146.06;;;3.98;100.00
9721;BME280;4899;42.644;23.366;2022-12-08T08:18:33;94155.78;;;4.25;100.00
9721;BME280;4899;42.644;23.366;2022-12-08T08:20:58;94157.94;;;4.37;100.00
9721;BME280;4899;42.644;23.366;2022-12-08T08:23:24;94165.94;;;4.54;100.00
9721;BME280;4899;42.644;23.366;2022-12-08T08:25:49;94171.88;;;4.74;100.00
9721;BME280;4899;42.644;23.366;2022-12-08T08:28:14;94182.84;;;4.93;100.00
9721;BME280;4899;42.644;23.366;2022-12-08T08:30:40;94163.47;;;4.97;100.00
9721;BME280;4899;42.644;23.366;2022-12-08T08:33:05;94166.38;;;5.09;100.00
9721;BME280;4899;42.644;23.366;2022-12-08T08:35:32;94152.97;;;5.22;100.00
9721;BME280;4899;42.644;23.366;2022-12-08T08:37:58;94163.50;;;5.35;100.00
9721;BME280;4899;42.644;23.366;2022-12-08T08:40:23;94165.31;;;5.53;100.00
9721;BME280;4899;42.644;23.366;2022-12-08T08:42:49;94166.19;;;5.62;100.00
9721;BME280;4899;42.644;23.366;2022-12-08T08:45:14;94162.59;;;5.63;100.00
9721;BME280;4899;42.644;23.366;2022-12-08T08:47:40;94171.09;;;5.77;100.00
9721;BME280;4899;42.644;23.366;2022-12-08T08:50:06;94160.63;;;5.79;100.00
9721;BME280;4899;42.644;23.366;2022-12-08T08:52:31;94157.69;;;5.85;100.00
9721;BME280;4899;42.644;23.366;2022-12-08T08:54:57;94144.75;;;5.82;100.00
9721;BME280;4899;42.644;23.366;2022-12-08T08:57:22;94158.75;;;6.03;100.00
9721;BME280;4899;42.644;23.366;2022-12-08T08:59:47;94158.38;;;6.10;100.00
9721;BME280;4899;42.644;23.366;2022-12-08T09:02:17;94147.19;;;6.25;100.00
9721;BME280;4899;42.644;23.366;2022-12-08T09:04:44;94133.47;;;6.34;100.00
9721;BME280;4899;42.644;23.366;2022-12-08T09:07:09;94144.84;;;6.56;100.00
9721;BME280;4899;42.644;23.366;2022-12-08T09:09:35;94134.81;;;6.59;100.00
9721;BME280;4899;42.644;23.366;2022-12-08T09:12:01;94141.09;;;6.94;100.00
9721;BME280;4899;42.644;23.366;2022-12-08T09:14:26;94141.91;;;7.03;100.00
9721;BME280;4899;42.644;23.366;2022-12-08T09:16:52;94125.16;;;6.97;100.00
9721;BME280;4899;42.644;23.366;2022-12-08T09:19:17;94115.19;;;7.09;100.00
9721;BME280;4899;42.644;23.366;2022-12-08T09:21:43;94101.25;;;7.16;100.00
9721;BME280;4899;42.644;23.366;2022-12-08T09:24:08;94142.97;;;7.52;100.00
9721;BME280;4899;42.644;23.366;2022-12-08T09:26:43;94116.91;;;7.50;100.00
9721;BME280;4899;42.644;23.366;2022-12-08T09:29:09;94133.13;;;7.68;100.00
9721;BME280;4899;42.644;23.366;2022-12-08T09:31:36;94114.88;;;7.61;100.00
9721;BME280;4899;42.644;23.366;2022-12-08T09:34:03;94115.50;;;7.66;100.00
9721;BME280;4899;42.644;23.366;2022-12-08T09:36:29;94123.44;;;7.79;100.00
9721;BME280;4899;42.644;23.366;2022-12-08T09:38:54;94123.84;;;7.72;100.00
9721;BME280;4899;42.644;23.366;2022-12-08T09:46:33;94122.44;;;7.88;100.00
9721;BME280;4899;42.644;23.366;2022-12-08T09:48:59;94110.88;;;7.91;100.00
9721;BME280;4899;42.644;23.366;2022-12-08T09:51:30;94125.59;;;8.08;100.00
9721;BME280;4899;42.644;23.366;2022-12-08T09:56:32;94123.00;;;8.30;100.00
9721;BME280;4899;42.644;23.366;2022-12-08T10:01:44;94105.94;;;8.48;100.00
9721;BME280;4899;42.644;23.366;2022-12-08T10:04:22;94099.47;;;8.59;100.00
9721;BME280;4899;42.644;23.366;2022-12-08T10:12:25;94095.25;;;8.63;100.00
9721;BME280;4899;42.644;23.366;2022-12-08T10:15:02;94091.19;;;8.62;100.00
9721;BME280;4899;42.644;23.366;2022-12-08T10:17:47;94085.75;;;8.63;100.00
9721;BME280;4899;42.644;23.366;2022-12-08T10:20:17;94078.53;;;8.66;100.00
9721;BME280;4899;42.644;23.366;2022-12-08T10:22:44;94049.38;;;8.44;100.00
9721;BME280;4899;42.644;23.366;2022-12-08T10:25:18;94069.78;;;8.67;100.00
9721;BME280;4899;42.644;23.366;2022-12-08T10:27:47;94083.09;;;8.69;100.00
9721;BME280;4899;42.644;23.366;2022-12-08T10:30:17;94089.91;;;8.90;100.00
9721;BME280;4899;42.644;23.366;2022-12-08T10:32:48;94082.69;;;8.92;100.00
9721;BME280;4899;42.644;23.366;2022-12-08T10:35:16;94080.13;;;8.92;100.00
9721;BME280;4899;42.644;23.366;2022-12-08T10:38:02;94085.34;;;8.70;100.00
9721;BME280;4899;42.644;23.366;2022-12-08T10:40:35;94084.28;;;8.71;100.00
9721;BME280;4899;42.644;23.366;2022-12-08T10:43:02;94048.03;;;8.55;100.00
9721;BME280;4899;42.644;23.366;2022-12-08T10:45:29;94071.78;;;8.78;100.00
9721;BME280;4899;42.644;23.366;2022-12-08T10:48:02;94063.03;;;8.79;100.00
9721;BME280;4899;42.644;23.366;2022-12-08T10:53:14;94053.97;;;8.73;100.00
9721;BME280;4899;42.644;23.366;2022-12-08T10:55:46;94048.69;;;8.70;100.00
9721;BME280;4899;42.644;23.366;2022-12-08T10:58:33;94045.50;;;8.64;100.00
9721;BME280;4899;42.644;23.366;2022-12-08T11:03:53;94055.94;;;8.68;100.00
9721;BME280;4899;42.644;23.366;2022-12-08T11:06:31;94053.81;;;8.70;100.00
9721;BME280;4899;42.644;23.366;2022-12-08T11:09:01;94027.69;;;8.59;100.00
9721;BME280;4899;42.644;23.366;2022-12-08T11:11:42;94038.31;;;8.83;100.00
9721;BME280;4899;42.644;23.366;2022-12-08T11:14:23;94048.00;;;8.95;100.00
9721;BME280;4899;42.644;23.366;2022-12-08T11:16:55;94033.19;;;9.01;100.00
9721;BME280;4899;42.644;23.366;2022-12-08T11:19:25;94033.97;;;9.10;100.00
9721;BME280;4899;42.644;23.366;2022-12-08T11:21:52;94026.72;;;9.12;100.00
9721;BME280;4899;42.644;23.366;2022-12-08T11:24:24;94016.00;;;9.18;100.00
9721;BME280;4899;42.644;23.366;2022-12-08T11:29:18;94008.44;;;9.39;100.00
9721;BME280;4899;42.644;23.366;2022-12-08T11:31:52;94006.31;;;9.67;100.00
9721;BME280;4899;42.644;23.366;2022-12-08T11:34:38;94000.78;;;9.86;100.00
9721;BME280;4899;42.644;23.366;2022-12-08T11:37:07;93993.69;;;9.92;100.00
9721;BME280;4899;42.644;23.366;2022-12-08T11:39:41;94012.66;;;10.16;100.00
9721;BME280;4899;42.644;23.366;2022-12-08T11:42:11;94012.91;;;10.32;100.00
9721;BME280;4899;42.644;23.366;2022-12-08T11:44:54;94000.91;;;10.45;100.00
9721;BME280;4899;42.644;23.366;2022-12-08T11:47:25;94007.53;;;10.75;100.00
9721;BME280;4899;42.644;23.366;2022-12-08T11:50:02;94005.72;;;10.97;100.00
9721;BME280;4899;42.644;23.366;2022-12-08T11:52:44;94001.59;;;11.25;100.00
9721;BME280;4899;42.644;23.366;2022-12-08T11:58:08;93993.31;;;11.20;100.00
9721;BME280;4899;42.644;23.366;2022-12-08T12:00:35;93986.66;;;10.98;100.00
9721;BME280;4899;42.644;23.366;2022-12-08T12:03:14;93981.94;;;10.79;100.00
9721;BME280;4899;42.644;23.366;2022-12-08T12:08:54;94001.06;;;10.69;100.00
9721;BME280;4899;42.644;23.366;2022-12-08T12:17:34;93996.22;;;10.38;100.00
9721;BME280;4899;42.644;23.366;2022-12-08T12:20:13;93985.94;;;10.38;100.00
9721;BME280;4899;42.644;23.366;2022-12-08T12:22:41;93958.22;;;10.23;100.00
9721;BME280;4899;42.644;23.366;2022-12-08T12:25:16;93958.06;;;10.20;100.00
9721;BME280;4899;42.644;23.366;2022-12-08T12:27:43;93971.88;;;10.44;100.00
9721;BME280;4899;42.644;23.366;2022-12-08T12:30:24;93989.16;;;10.86;100.00
9721;BME280;4899;42.644;23.366;2022-12-08T12:32:56;93972.41;;;10.79;100.00
9721;BME280;4899;42.644;23.366;2022-12-08T12:37:56;93963.41;;;11.06;100.00
9721;BME280;4899;42.644;23.366;2022-12-08T12:40:24;93970.53;;;11.43;100.00
9721;BME280;4899;42.644;23.366;2022-12-08T18:44:55;94035.25;;;6.13;100.00
9721;BME280;4899;42.644;23.366;2022-12-08T18:47:37;94038.75;;;6.17;100.00
9721;BME280;4899;42.644;23.366;2022-12-08T18:50:05;94031.19;;;6.12;100.00
9721;BME280;4899;42.644;23.366;2022-12-08T18:52:31;94028.63;;;6.12;100.00
9721;BME280;4899;42.644;23.366;2022-12-08T18:54:56;94044.44;;;6.14;100.00
9721;BME280;4899;42.644;23.366;2022-12-08T18:57:22;94039.88;;;6.11;100.00
9721;BME280;4899;42.644;23.366;2022-12-08T18:59:48;94041.13;;;6.00;100.00
9721;BME280;4899;42.644;23.366;2022-12-08T19:02:13;94054.75;;;6.09;100.00
9721;BME280;4899;42.644;23.366;2022-12-08T19:04:39;94045.84;;;6.06;100.00
9721;BME280;4899;42.644;23.366;2022-12-08T19:07:07;94028.81;;;6.02;100.00
9721;BME280;4899;42.644;23.366;2022-12-08T19:09:33;94026.75;;;6.04;100.00
9721;BME280;4899;42.644;23.366;2022-12-08T19:11:58;94025.63;;;5.96;100.00
9721;BME280;4899;42.644;23.366;2022-12-08T19:14:24;94043.28;;;6.06;100.00
9721;BME280;4899;42.644;23.366;2022-12-08T19:16:49;94025.75;;;5.86;100.00
9721;BME280;4899;42.644;23.366;2022-12-08T19:19:15;94019.31;;;5.88;100.00
9721;BME280;4899;42.644;23.366;2022-12-08T19:21:41;94026.94;;;6.07;100.00
9721;BME280;4899;42.644;23.366;2022-12-08T19:24:07;94011.13;;;5.92;100.00
9721;BME280;4899;42.644;23.366;2022-12-08T19:26:32;94020.13;;;6.03;100.00
9721;BME280;4899;42.644;23.366;2022-12-08T19:28:58;94001.41;;;6.07;100.00
9721;BME280;4899;42.644;23.366;2022-12-08T19:31:24;94005.94;;;6.10;100.00
9721;BME280;4899;42.644;23.366;2022-12-08T19:33:49;94003.19;;;6.07;100.00
9721;BME280;4899;42.644;23.366;2022-12-08T19:36:17;94008.97;;;6.12;100.00
9721;BME280;4899;42.644;23.366;2022-12-08T19:38:43;94014.53;;;6.14;100.00
9721;BME280;4899;42.644;23.366;2022-12-08T19:41:27;94037.84;;;6.27;100.00
9721;BME280;4899;42.644;23.366;2022-12-08T19:46:50;94052.31;;;6.31;100.00
9721;BME280;4899;42.644;23.366;2022-12-08T19:49:16;94045.47;;;6.40;100.00
9721;BME280;4899;42.644;23.366;2022-12-08T19:51:41;94051.56;;;6.44;100.00
9721;BME280;4899;42.644;23.366;2022-12-08T19:54:06;94059.88;;;6.36;100.00
9721;BME280;4899;42.644;23.366;2022-12-08T19:56:33;94063.19;;;6.37;100.00
9721;BME280;4899;42.644;23.366;2022-12-08T19:58:58;94068.94;;;6.29;100.00
9721;BME280;4899;42.644;23.366;2022-12-08T20:01:24;94066.09;;;6.30;100.00
9721;BME280;4899;42.644;23.366;2022-12-08T20:03:49;94043.03;;;6.35;100.00
9721;BME280;4899;42.644;23.366;2022-12-08T20:06:15;94053.34;;;6.30;100.00
9721;BME280;4899;42.644;23.366;2022-12-08T20:08:42;94065.72;;;6.23;100.00
9721;BME280;4899;42.644;23.366;2022-12-08T20:11:08;94076.53;;;6.20;100.00
9721;BME280;4899;42.644;23.366;2022-12-08T20:13:33;94080.78;;;6.25;100.00
9721;BME280;4899;42.644;23.366;2022-12-08T20:16:13;94109.06;;;6.28;100.00
9721;BME280;4899;42.644;23.366;2022-12-08T20:18:39;94098.84;;;6.28;100.00
9721;BME280;4899;42.644;23.366;2022-12-08T20:21:06;94101.22;;;6.25;100.00
9721;BME280;4899;42.644;23.366;2022-12-08T20:23:31;94123.09;;;6.12;100.00
9721;BME280;4899;42.644;23.366;2022-12-08T20:25:58;94114.09;;;6.01;100.00
9721;BME280;4899;42.644;23.366;2022-12-08T20:28:23;94109.97;;;6.05;100.00
9721;BME280;4899;42.644;23.366;2022-12-08T20:30:49;94098.88;;;5.77;100.00
9721;BME280;4899;42.644;23.366;2022-12-08T20:33:16;94112.59;;;6.00;100.00